Latest Weather Observations for Emerald

IDQ60801

Issued at 5:32 pm EST Tuesday 3 March 2015 (issued every 30 minutes, with the page automatically refreshed every 10 minutes)

About weather observations | Map of weather stations | Latest weather observations for QLD | Other Formats
Station Details ID: 035264 Name: EMERALD AIRPORT Lat: -23.57 Lon: 148.18 Height: 189.4 m
Data from the previous 72 hours. | See also: Recent months at Emerald
Date/Time
EST
Temp
°C
App
Temp
°C
Dew
Point
Rel
Hum
%
Delta-T
°C
Wind Press
QNH
hPa
Press
MSL
hPa
Rain
since 9 am
mm
Dir
 
Spd
km/h
Gust
km/h
Spd
kts
Gust
kts
03/05:30pm 34.6 33.0 14.0 29 12.7 ESE 15 20 8 11 1010.3 - 0.0
03/05:00pm 35.1 33.7 14.4 29 12.9 E 15 22 8 12 1010.1 - 0.0
03/04:30pm 35.6 33.4 14.3 28 13.3 E 19 26 10 14 1010.1 - 0.0
03/04:00pm 35.0 33.7 13.8 28 13.1 E 13 22 7 12 1010.2 - 0.0
03/03:30pm 35.1 32.5 13.8 27 13.1 E 20 30 11 16 1010.4 - 0.0
03/03:00pm 35.1 32.7 13.8 27 13.1 E 19 28 10 15 1010.7 1009.6 0.0
03/02:30pm 34.9 31.7 13.1 27 13.3 SE 22 35 12 19 1011.0 - 0.0
03/02:00pm 34.4 33.1 13.8 29 12.7 E 13 30 7 16 1011.4 - 0.0
03/01:30pm 34.9 33.4 14.2 28 12.8 E 15 30 8 16 1011.8 - 0.0
03/01:00pm 33.7 31.8 14.2 30 12.0 E 17 24 9 13 1012.4 - 0.0
03/12:30pm 33.3 30.7 13.9 31 11.9 E 20 30 11 16 1013.0 - 0.0
03/12:00pm 32.3 30.3 14.0 33 11.2 ESE 17 30 9 16 1013.6 1012.6 0.0
03/11:30am 31.8 29.3 13.5 32 11.1 E 19 32 10 17 1014.3 - 0.0
03/11:00am 31.9 29.7 14.5 34 10.7 E 19 26 10 14 1014.8 - 0.0
03/10:30am 31.0 29.3 15.8 40 9.5 ESE 19 30 10 16 1015.2 - 0.0
03/10:00am 29.9 27.2 15.6 42 8.9 E 24 33 13 18 1015.4 - 0.0
03/09:30am 29.5 27.1 16.3 45 8.3 E 24 32 13 17 1015.5 - 0.0
03/09:00am 28.4 25.6 16.3 47 7.6 E 26 33 14 18 1015.5 1014.4 0.0
03/08:30am 27.2 25.8 17.9 56 5.9 E 22 28 12 15 1015.6 - 0.0
03/08:00am 26.4 25.2 18.5 62 5.1 E 22 30 12 16 1015.4 - 0.0
03/07:30am 25.3 26.8 20.5 75 3.2 E 13 17 7 9 1015.1 - 0.0
03/07:00am 24.2 27.1 21.1 83 2.1 E 7 9 4 5 1015.0 - 0.0
03/06:30am 23.0 26.0 20.9 88 1.4 ESE 6 6 3 3 1014.8 - 0.0
03/06:00am 22.6 25.3 20.7 89 1.2 E 7 9 4 5 1014.5 1013.4 0.0
03/05:30am 23.1 25.6 21.0 88 1.4 ENE 9 13 5 7 1014.0 - 0.0
03/05:00am 23.0 25.8 20.9 88 1.4 E 7 9 4 5 1013.5 - 0.0
03/04:30am 23.3 25.8 21.0 87 1.5 E 9 11 5 6 1013.3 - 0.0
03/04:00am 23.7 25.7 20.8 84 1.9 ENE 11 13 6 7 1013.1 - 0.0
03/03:30am 24.0 26.0 20.7 82 2.2 E 11 15 6 8 1012.9 - 0.0
03/03:00am 24.6 26.6 20.7 79 2.6 E 11 13 6 7 1012.8 1011.8 0.0
03/02:30am 24.7 25.9 20.6 78 2.7 E 15 20 8 11 1012.9 - 0.0
03/02:00am 25.0 25.6 20.3 75 3.1 ENE 17 24 9 13 1012.6 - 0.0
03/01:30am 25.2 25.9 20.5 75 3.1 ENE 17 24 9 13 1012.7 - 0.0
03/01:00am 25.5 25.2 20.3 73 3.4 ENE 22 32 12 17 1012.7 - 0.0
03/12:30am 25.7 25.5 20.5 73 3.4 NE 22 33 12 18 1012.7 - 0.0
03/12:00am 25.9 25.9 20.9 74 3.3 NE 22 30 12 16 1012.6 1011.6 0.0
 
Date/Time
EST
Temp
°C
App
Temp
°C
Dew
Point
Rel
Hum
%
Delta-T
°C
Wind Press
QNH
hPa
Press
MSL
hPa
Rain
since 9 am
mm
Dir
 
Spd
km/h
Gust
km/h
Spd
kts
Gust
kts
02/11:30pm 26.5 25.8 21.0 72 3.7 NE 26 33 14 18 1012.4 - 0.0
02/11:00pm 27.1 26.6 20.7 68 4.2 ENE 24 35 13 19 1012.3 - 0.0
02/10:30pm 27.7 26.9 20.8 66 4.6 ENE 26 41 14 22 1012.1 - 0.0
02/10:00pm 28.6 28.7 21.1 64 5.0 NE 22 32 12 17 1011.9 - 0.0
02/09:30pm 29.3 28.4 20.7 59 5.7 ENE 26 37 14 20 1011.4 - 0.0
02/09:00pm 30.0 27.1 20.0 55 6.6 ENE 35 43 19 23 1010.7 1009.6 0.0
02/08:57pm 30.2 26.8 19.9 54 6.8 ENE 37 43 20 23 1010.7 - 0.0
02/08:30pm 30.2 30.2 18.9 50 7.4 E 17 24 9 13 1010.1 - 0.0
02/08:00pm 31.4 30.7 18.7 46 8.3 ENE 20 26 11 14 1009.7 - 0.0
02/07:30pm 31.3 32.2 18.3 46 8.4 NE 11 15 6 8 1009.3 - 0.0
02/07:00pm 32.0 32.8 18.2 43 9.0 NE 11 13 6 7 1009.1 - 0.0
02/06:30pm 32.8 32.8 18.2 42 9.5 ENE 15 19 8 10 1008.7 - 0.0
02/06:00pm 33.5 32.7 18.0 39 10.1 ENE 19 26 10 14 1008.1 1007.1 0.0
02/05:30pm 34.2 32.6 18.3 39 10.4 ENE 24 32 13 17 1007.7 - 0.0
02/05:00pm 35.0 32.9 17.2 34 11.5 E 24 32 13 17 1007.5 - 0.0
02/04:30pm 35.0 33.3 18.1 36 11.1 E 24 32 13 17 1007.3 - 0.0
02/04:00pm 35.6 32.4 17.3 33 11.9 E 30 37 16 20 1007.3 - 0.0
02/03:30pm 34.7 31.2 19.5 40 10.1 E 37 46 20 25 1007.3 - 0.0
02/03:14pm 33.9 29.7 20.6 45 9.0 E 43 50 23 27 1007.5 - 0.0
02/03:00pm 34.4 30.5 21.1 45 9.1 ESE 43 57 23 31 1007.5 1006.5 0.0
02/02:57pm 34.4 29.8 20.0 42 9.7 ESE 44 57 24 31 1007.5 - 0.0
02/02:30pm 35.5 36.5 18.6 37 11.2 E 11 20 6 11 1007.4 - 0.0
02/02:00pm 35.4 36.3 19.3 38 10.7 N 13 30 7 16 1007.9 - 0.0
02/01:30pm 34.9 35.6 19.7 41 10.2 E 15 20 8 11 1008.7 - 0.0
02/01:00pm 34.4 36.0 20.0 42 9.7 ESE 11 20 6 11 1009.2 - 0.0
02/12:30pm 34.1 35.4 20.1 43 9.4 E 13 24 7 13 1009.8 - 0.0
02/12:00pm 34.5 36.4 19.7 41 9.9 NNE 9 19 5 10 1010.4 1009.3 0.0
02/11:30am 33.5 34.9 20.3 46 8.9 E 13 20 7 11 1010.9 - 0.0
02/11:00am 31.2 33.3 20.2 52 7.3 NNE 9 15 5 8 1011.3 - 0.0
02/10:30am 32.3 34.9 21.2 52 7.5 ESE 9 17 5 9 1011.5 - 0.0
02/10:00am 31.0 32.2 20.6 54 7.0 ENE 15 22 8 12 1011.8 - 0.0
02/09:30am 30.2 31.8 20.7 56 6.4 NE 13 19 7 10 1012.0 - 0.0
02/09:00am 29.5 31.3 20.4 58 6.1 NNE 11 17 6 9 1012.0 1011.0 0.0
02/08:30am 28.1 29.2 20.4 63 5.1 NNE 15 20 8 11 1011.9 - 0.0
02/08:00am 27.6 28.3 20.4 65 4.8 NE 17 20 9 11 1011.9 - 0.0
02/07:30am 26.4 27.1 20.5 70 3.9 NNE 17 22 9 12 1011.5 - 0.0
02/07:00am 25.5 27.1 20.7 75 3.2 ENE 13 17 7 9 1011.2 - 0.0
02/06:30am 24.5 26.8 20.6 79 2.6 ENE 9 13 5 7 1010.9 - 0.0
02/06:00am 24.3 26.4 20.2 78 2.7 NE 9 13 5 7 1010.5 1009.4 0.0
02/05:30am 24.5 26.2 20.2 77 2.8 ENE 11 15 6 8 1009.8 - 0.0
02/05:00am 24.4 25.7 20.1 77 2.8 ENE 13 17 7 9 1009.3 - 0.0
02/04:30am 24.8 26.3 19.8 74 3.3 ENE 11 15 6 8 1009.0 - 0.0
02/04:00am 25.1 27.0 19.7 72 3.5 NE 9 13 5 7 1008.6 - 0.0
02/03:30am 25.5 27.1 19.9 71 3.7 NE 11 13 6 7 1008.4 - 0.0
02/03:00am 25.9 27.1 19.8 69 4.0 NE 13 17 7 9 1008.3 1007.2 0.0
02/02:30am 26.1 26.4 19.5 67 4.3 NE 17 24 9 13 1008.5 - 0.0
02/02:00am 26.2 26.7 19.3 65 4.5 NE 15 24 8 13 1008.6 - 0.0
02/01:30am 26.6 26.3 19.2 64 4.8 NE 19 24 10 13 1008.6 - 0.0
02/01:00am 27.1 27.2 19.2 62 5.1 NNE 17 24 9 13 1008.5 - 0.0
02/12:30am 27.4 27.5 19.2 61 5.3 NNE 17 22 9 12 1008.8 - 0.0
02/12:00am 27.8 27.4 19.3 60 5.5 NNE 20 28 11 15 1008.7 1007.6 0.0
 
Date/Time
EST
Temp
°C
App
Temp
°C
Dew
Point
Rel
Hum
%
Delta-T
°C
Wind Press
QNH
hPa
Press
MSL
hPa
Rain
since 9 am
mm
Dir
 
Spd
km/h
Gust
km/h
Spd
kts
Gust
kts
01/11:30pm 28.3 28.3 19.8 60 5.6 NNE 19 32 10 17 1009.0 - 0.0
01/11:00pm 28.9 29.3 19.8 58 6.0 NNE 17 22 9 12 1009.1 - 0.0
01/10:30pm 29.1 29.5 19.1 54 6.5 NE 15 20 8 11 1009.0 - 0.0
01/10:00pm 29.7 29.8 19.1 53 6.9 ENE 17 20 9 11 1008.9 - 0.0
01/09:30pm 29.7 30.5 19.1 53 6.9 ENE 13 19 7 10 1008.6 - 0.0
01/09:00pm 28.9 30.2 19.2 55 6.3 E 11 15 6 8 1008.1 1007.1 0.0
01/08:30pm 29.5 31.1 19.2 54 6.7 ENE 9 11 5 6 1007.9 - 0.0
01/08:00pm 29.9 31.1 19.0 52 7.1 E 11 11 6 6 1007.4 - 0.0
01/07:30pm 31.3 32.3 18.6 46 8.3 ENE 11 13 6 7 1006.8 - 0.0
01/07:00pm 32.0 32.8 18.2 43 9.0 NE 11 15 6 8 1006.5 - 0.0
01/06:30pm 32.9 33.8 18.3 42 9.5 ENE 11 13 6 7 1006.2 - 0.0
01/06:00pm 34.2 35.0 17.4 36 10.9 E 9 13 5 7 1006.2 1005.1 0.0
01/05:30pm 35.0 36.4 17.7 36 11.3 NE 7 19 4 10 1006.0 - 0.0
01/05:00pm 34.6 35.2 17.8 37 10.9 N 11 17 6 9 1005.9 - 0.0
01/04:30pm 35.0 37.1 18.1 36 11.1 WSW 4 11 2 6 1005.9 - 0.0
01/04:00pm 34.6 35.8 18.2 37 10.7 NW 9 15 5 8 1006.2 - 0.0
01/03:30pm 33.4 34.1 18.0 40 10.0 W 11 15 6 8 1006.4 - 0.0
01/03:00pm 33.2 33.5 17.8 40 10.0 WNW 13 19 7 10 1006.5 1005.5 0.0
01/02:30pm 33.4 34.9 18.0 40 10.0 NNW 7 13 4 7 1006.8 - 0.0
01/02:00pm 33.3 34.9 17.9 40 10.0 WNW 6 13 3 7 1007.2 - 0.0
01/01:30pm 33.1 35.0 17.7 40 10.0 N 4 11 2 6 1007.7 - 0.0
01/01:00pm 32.8 34.2 17.8 40 9.7 NNW 7 15 4 8 1008.4 - 0.0
01/12:30pm 33.4 33.5 17.5 38 10.3 NNW 13 22 7 12 1008.8 - 0.0
01/12:00pm 33.4 33.4 18.0 40 10.0 N 15 24 8 13 1009.3 1008.2 0.0
01/11:30am 32.4 33.2 18.2 42 9.2 N 11 20 6 11 1009.9 - 0.0
01/11:00am 31.3 31.5 18.6 46 8.3 N 15 24 8 13 1010.2 - 0.0
01/10:30am 30.9 30.6 18.3 47 8.2 N 17 24 9 13 1010.7 - 0.0
01/10:00am 30.0 30.7 18.8 51 7.3 N 13 24 7 13 1011.0 - 0.0
01/09:30am 29.3 28.7 18.4 51 7.0 N 19 26 10 14 1011.2 - 0.0
01/09:00am 28.3 27.9 19.0 57 6.0 N 19 28 10 15 1011.1 1010.0 0.0
01/08:30am 26.8 28.3 19.7 65 4.6 NNE 11 15 6 8 1011.1 - 0.0
01/08:00am 26.3 27.7 20.4 70 3.9 NNE 13 17 7 9 1010.9 - 0.0
01/07:30am 25.9 28.7 21.6 77 2.9 NNE 9 15 5 8 1010.6 - 0.0
01/07:00am 24.4 26.7 21.3 83 2.1 NNE 11 15 6 8 1010.1 - 0.0
01/06:30am 23.4 26.2 21.5 89 1.3 NE 9 11 5 6 1009.9 - 0.0
01/06:00am 23.1 25.8 21.4 90 1.1 NE 9 11 5 6 1009.6 1008.5 0.0
01/05:30am 23.4 26.1 21.3 88 1.4 NE 9 11 5 6 1009.4 - 0.0
01/05:00am 23.6 26.0 21.5 88 1.4 NE 11 13 6 7 1008.9 - 0.0
01/04:30am 23.8 26.2 21.5 87 1.5 ENE 11 13 6 7 1008.7 - 0.0
01/04:00am 23.9 26.2 21.4 86 1.7 NE 11 15 6 8 1008.7 - 0.0
01/03:30am 24.0 26.3 21.3 85 1.8 NE 11 13 6 7 1008.5 - 0.0
01/03:00am 24.2 26.4 21.1 83 2.1 NE 11 15 6 8 1008.4 1007.3 0.0
01/02:30am 24.5 26.2 21.0 81 2.3 NE 13 20 7 11 1008.3 - 0.0
01/02:00am 24.8 26.2 21.1 80 2.5 NNE 15 20 8 11 1008.7 - 0.0
01/01:30am 25.0 26.3 20.9 78 2.7 NNE 15 22 8 12 1009.1 - 0.0
01/01:00am 25.3 25.8 20.8 76 3.0 NNE 19 28 10 15 1009.3 - 0.0
01/12:30am 25.5 25.4 20.7 75 3.2 NNE 22 32 12 17 1009.3 - 0.0
01/12:00am 25.7 25.0 20.3 72 3.6 NE 24 35 13 19 1009.6 1008.5 0.0
 
Date/Time
EST
Temp
°C
App
Temp
°C
Dew
Point
Rel
Hum
%
Delta-T
°C
Wind Press
QNH
hPa
Press
MSL
hPa
Rain
since 9 am
mm
Dir
 
Spd
km/h
Gust
km/h
Spd
kts
Gust
kts
28/11:30pm 26.1 25.6 20.0 69 4.0 NNE 22 32 12 17 1009.5 - 0.0
28/11:00pm 26.6 24.9 19.7 66 4.5 NE 28 39 15 21 1009.3 - 0.0
28/10:30pm 27.2 26.5 19.5 62 5.0 NNE 22 33 12 18 1009.0 - 0.0
28/10:00pm 27.7 27.2 20.0 63 5.1 NE 22 32 12 17 1008.5 - 0.0
28/09:30pm 28.4 28.3 19.9 60 5.6 NNE 20 30 11 16 1008.5 - 0.0
28/09:00pm 29.0 27.2 19.6 57 6.2 NNE 28 41 15 22 1008.1 1006.9 0.0
28/08:30pm 30.0 28.5 19.4 53 7.0 NNE 26 39 14 21 1007.4 - 0.0
28/08:00pm 30.5 29.3 19.2 51 7.4 NE 24 35 13 19 1007.0 - 0.0
28/07:30pm 31.4 29.8 19.1 48 8.1 NE 26 35 14 19 1006.5 - 0.0
28/07:00pm 32.3 30.4 18.5 44 9.0 NE 26 37 14 20 1006.1 - 0.0
28/06:30pm 34.2 33.7 17.8 37 10.7 ENE 17 26 9 14 1005.5 - 0.0
28/06:00pm 35.3 36.0 18.0 36 11.3 NE 11 17 6 9 1005.3 1004.0 0.0

Other Formats:

Comma delimited format used in spreadsheet applications
http://www.bom.gov.au/fwo/IDQ60801/IDQ60801.94363.axf

JavaScript Object Notation format (JSON) in row-major order
http://www.bom.gov.au/fwo/IDQ60801/IDQ60801.94363.json